Time;durP1;ratioP1;P1;durP2;ratioP2;P2;SDS_P1;SDS_P2;PMS_P1;PMS_P2;Temp;Humidity;BMP_temperature;BMP_pressure;BME280_temperature;BME280_humidity;BME280_pressure;Samples;Min_cycle;Max_cycle;Signal;HPM_P1;HPM_P2
2023/09/24 00:03:21;;;;;;;;;;;;;;;11.91;100.00;96321.28;10519453;28;2056;-81
2023/09/24 00:08:34;;;;;;;;;;;;;;;11.88;100.00;96311.03;10501304;28;1819;-80
2023/09/24 00:13:49;;;;;;;;;;;;;;;11.83;100.00;96314.56;10521764;28;2768;-80
2023/09/24 00:30:09;;;;;;;;;;;;;;;11.55;100.00;96334.66;10530167;28;1867;-80
2023/09/24 00:35:35;;;;;;;;;;;;;;;11.46;100.00;96335.47;10518197;28;1853;-80
2023/09/24 00:41:03;;;;;;;;;;;;;;;11.48;100.00;96350.25;10510318;28;4485;-80
2023/09/24 00:46:25;;;;;;;;;;;;;;;11.51;100.00;96351.59;10512293;28;1868;-80
2023/09/24 00:51:53;;;;;;;;;;;;;;;11.47;100.00;96354.03;10527734;28;2044;-80
2023/09/24 00:57:13;;;;;;;;;;;;;;;11.41;100.00;96354.28;10527279;28;3238;-82
2023/09/24 01:02:23;;;;;;;;;;;;;;;11.29;100.00;96351.81;10529664;28;1929;-81
2023/09/24 01:07:37;;;;;;;;;;;;;;;11.22;100.00;96349.38;10515233;28;1788;-80
2023/09/24 01:13:08;;;;;;;;;;;;;;;11.18;100.00;96350.97;10545843;28;1893;-80
2023/09/24 01:18:25;;;;;;;;;;;;;;;11.04;100.00;96356.00;10551009;28;1846;-81
2023/09/24 01:23:40;;;;;;;;;;;;;;;10.86;100.00;96359.16;10516393;28;1913;-80
2023/09/24 01:34:26;;;;;;;;;;;;;;;10.52;100.00;96364.88;10525568;28;1995;-80
2023/09/24 01:39:51;;;;;;;;;;;;;;;10.44;100.00;96364.53;10520466;28;2129;-79
2023/09/24 01:45:23;;;;;;;;;;;;;;;10.27;100.00;96370.84;10529271;28;1907;-80
2023/09/24 02:01:44;;;;;;;;;;;;;;;10.04;100.00;96398.03;10510243;28;2405;-81
2023/09/24 02:07:05;;;;;;;;;;;;;;;9.98;100.00;96409.78;10506014;28;1903;-81
2023/09/24 02:12:17;;;;;;;;;;;;;;;9.89;100.00;96422.06;10535765;28;1907;-80
2023/09/24 02:22:58;;;;;;;;;;;;;;;9.72;100.00;96435.56;10523372;28;1932;-81
2023/09/24 02:28:19;;;;;;;;;;;;;;;9.62;100.00;96441.63;10525788;28;1995;-81
2023/09/24 02:33:48;;;;;;;;;;;;;;;9.55;100.00;96445.59;10523482;28;1910;-80
2023/09/24 02:39:25;;;;;;;;;;;;;;;9.51;100.00;96447.13;10518284;28;2306;-80
2023/09/24 02:45:07;;;;;;;;;;;;;;;9.46;100.00;96459.41;10517906;28;4719;-81
2023/09/24 02:50:30;;;;;;;;;;;;;;;9.47;100.00;96462.91;10491514;28;1895;-80
2023/09/24 02:55:58;;;;;;;;;;;;;;;9.40;100.00;96470.34;10521741;28;2061;-81
2023/09/24 03:06:49;;;;;;;;;;;;;;;9.28;100.00;96483.84;10528518;28;1920;-81
2023/09/24 03:12:12;;;;;;;;;;;;;;;9.26;100.00;96495.91;10521225;28;1931;-78
2023/09/24 03:22:48;;;;;;;;;;;;;;;9.12;100.00;96493.59;10519408;28;1952;-80
2023/09/24 03:28:05;;;;;;;;;;;;;;;9.09;100.00;96495.94;10504687;28;1914;-80
2023/09/24 03:39:34;;;;;;;;;;;;;;;8.92;100.00;96506.69;10521938;28;1805;-80
2023/09/24 03:50:51;;;;;;;;;;;;;;;8.93;100.00;96516.34;10520268;28;1777;-81
2023/09/24 03:56:24;;;;;;;;;;;;;;;8.85;100.00;96509.53;10529564;28;1841;-81
2023/09/24 04:01:47;;;;;;;;;;;;;;;8.84;100.00;96512.44;10511158;28;1950;-78
2023/09/24 04:07:17;;;;;;;;;;;;;;;8.79;100.00;96515.88;10524769;28;1922;-81
2023/09/24 04:18:30;;;;;;;;;;;;;;;8.67;100.00;96512.47;10523895;28;2052;-80
2023/09/24 04:23:42;;;;;;;;;;;;;;;8.65;100.00;96525.28;10528695;28;1898;-80
2023/09/24 04:29:05;;;;;;;;;;;;;;;8.58;100.00;96533.47;10525024;28;3185;-79
2023/09/24 04:34:23;;;;;;;;;;;;;;;8.54;100.00;96537.72;10511082;28;1877;-81
2023/09/24 04:39:43;;;;;;;;;;;;;;;8.50;100.00;96536.56;10534364;28;1901;-80
2023/09/24 04:45:18;;;;;;;;;;;;;;;8.47;100.00;96542.41;10532184;28;1993;-80
2023/09/24 04:50:51;;;;;;;;;;;;;;;8.41;100.00;96538.00;10532226;28;1912;-81
2023/09/24 04:56:14;;;;;;;;;;;;;;;8.35;100.00;96545.16;10509412;28;1591;-80
2023/09/24 05:07:10;;;;;;;;;;;;;;;8.28;100.00;96549.00;10573877;28;1924;-81
2023/09/24 05:12:25;;;;;;;;;;;;;;;8.34;100.00;96550.72;10542952;28;1797;-80
2023/09/24 05:17:39;;;;;;;;;;;;;;;8.39;100.00;96561.53;10534556;28;2759;-80
2023/09/24 05:23:02;;;;;;;;;;;;;;;8.56;100.00;96567.75;10518103;28;2057;-81
2023/09/24 05:28:25;;;;;;;;;;;;;;;8.73;100.00;96561.59;10497652;28;1902;-81
2023/09/24 05:33:47;;;;;;;;;;;;;;;8.82;100.00;96574.34;10512049;28;1929;-80
2023/09/24 05:39:08;;;;;;;;;;;;;;;8.97;100.00;96573.81;10511468;28;1889;-80
2023/09/24 05:44:28;;;;;;;;;;;;;;;9.04;100.00;96585.19;10528290;28;4642;-79
2023/09/24 05:49:40;;;;;;;;;;;;;;;9.18;100.00;96591.84;10511100;28;1847;-80
2023/09/24 05:55:02;;;;;;;;;;;;;;;9.36;100.00;96603.38;10509743;28;1912;-81
2023/09/24 06:05:51;;;;;;;;;;;;;;;9.78;100.00;96589.47;10524702;28;1969;-81
2023/09/24 06:11:11;;;;;;;;;;;;;;;9.98;100.00;96595.91;10503788;28;1852;-82
2023/09/24 06:22:04;;;;;;;;;;;;;;;10.39;100.00;96603.69;10525360;28;1938;-81
2023/09/24 06:27:29;;;;;;;;;;;;;;;10.63;100.00;96601.53;10506110;28;1909;-81
2023/09/24 06:32:51;;;;;;;;;;;;;;;10.85;100.00;96606.84;10523423;28;1819;-80
2023/09/24 06:38:12;;;;;;;;;;;;;;;10.99;100.00;96602.66;10518119;28;2041;-82
2023/09/24 06:43:32;;;;;;;;;;;;;;;11.13;100.00;96616.50;10523512;28;4565;-80
2023/09/24 06:48:55;;;;;;;;;;;;;;;11.27;100.00;96613.16;10500914;28;2172;-81
2023/09/24 06:54:08;;;;;;;;;;;;;;;11.45;100.00;96619.19;10521609;28;1813;-81
2023/09/24 06:59:30;;;;;;;;;;;;;;;11.53;100.00;96624.09;10523671;28;1902;-83
2023/09/24 07:04:53;;;;;;;;;;;;;;;11.66;100.00;96629.03;10508526;28;2886;-81
2023/09/24 07:10:18;;;;;;;;;;;;;;;11.73;100.00;96626.13;10507845;28;1898;-80
2023/09/24 07:15:34;;;;;;;;;;;;;;;11.84;100.00;96634.03;10506216;28;1939;-83
2023/09/24 07:20:39;;;;;;;;;;;;;;;11.97;100.00;96626.56;10529249;28;1883;-79
2023/09/24 07:25:51;;;;;;;;;;;;;;;12.08;100.00;96623.63;10508491;28;1985;-78
2023/09/24 07:30:53;;;;;;;;;;;;;;;12.45;100.00;96622.72;10522609;28;1860;-79
2023/09/24 07:36:06;;;;;;;;;;;;;;;12.63;100.00;96626.84;10524948;28;1975;-80
2023/09/24 07:41:23;;;;;;;;;;;;;;;12.32;100.00;96625.91;10526649;28;1902;-80
2023/09/24 07:46:31;;;;;;;;;;;;;;;12.62;100.00;96623.31;10515914;28;1896;-82
2023/09/24 07:51:37;;;;;;;;;;;;;;;12.68;100.00;96624.16;10517507;28;1786;-82
2023/09/24 07:56:48;;;;;;;;;;;;;;;12.75;100.00;96627.41;10526993;28;1851;-82
2023/09/24 08:01:56;;;;;;;;;;;;;;;12.82;100.00;96633.34;10504312;28;2626;-81
2023/09/24 08:12:20;;;;;;;;;;;;;;;13.06;100.00;96633.66;10525751;28;2050;-81
2023/09/24 08:17:30;;;;;;;;;;;;;;;13.30;100.00;96634.00;10520346;28;2087;-82
2023/09/24 08:22:38;;;;;;;;;;;;;;;13.96;100.00;96636.63;10506762;28;2249;-77
2023/09/24 08:27:52;;;;;;;;;;;;;;;13.67;100.00;96632.88;10504681;28;1824;-80
2023/09/24 08:32:59;;;;;;;;;;;;;;;13.22;100.00;96638.03;10521639;28;1826;-82
2023/09/24 08:38:05;;;;;;;;;;;;;;;13.53;100.00;96636.13;10523336;28;1867;-81
2023/09/24 08:43:09;;;;;;;;;;;;;;;13.88;100.00;96642.59;10525278;28;4602;-80
2023/09/24 08:48:15;;;;;;;;;;;;;;;14.38;100.00;96646.25;10505888;28;2632;-81
2023/09/24 08:53:27;;;;;;;;;;;;;;;14.70;100.00;96639.66;10528805;28;1918;-81
2023/09/24 09:03:59;;;;;;;;;;;;;;;15.03;100.00;96638.09;10554072;28;2054;-81
2023/09/24 09:14:22;;;;;;;;;;;;;;;14.79;100.00;96632.53;10540616;28;1875;-82
2023/09/24 09:19:35;;;;;;;;;;;;;;;14.99;100.00;96632.41;10531007;28;2030;-80
2023/09/24 09:25:06;;;;;;;;;;;;;;;15.06;100.00;96627.50;10510513;28;2030;-82
2023/09/24 09:41:05;;;;;;;;;;;;;;;15.00;100.00;96631.31;10514074;28;2333;-81
2023/09/24 09:46:23;;;;;;;;;;;;;;;15.27;100.00;96621.94;10529744;28;1902;-84
2023/09/24 09:51:28;;;;;;;;;;;;;;;15.05;100.00;96614.25;10512446;28;1913;-80
2023/09/24 09:56:46;;;;;;;;;;;;;;;15.55;100.00;96615.75;10534856;28;1905;-80
2023/09/24 10:02:01;;;;;;;;;;;;;;;15.08;100.00;96614.50;10530335;28;2526;-79
2023/09/24 10:07:10;;;;;;;;;;;;;;;14.71;100.00;96608.78;10533532;28;2062;-79
2023/09/24 10:12:15;;;;;;;;;;;;;;;14.52;100.00;96616.72;10526789;28;1972;-80
2023/09/24 10:17:29;;;;;;;;;;;;;;;15.05;100.00;96606.94;10530191;28;2028;-82
2023/09/24 10:22:34;;;;;;;;;;;;;;;15.17;100.00;96605.78;10522185;28;1961;-79
2023/09/24 10:38:43;;;;;;;;;;;;;;;17.06;100.00;96608.06;10512040;28;1971;-80
2023/09/24 10:43:59;;;;;;;;;;;;;;;17.42;100.00;96588.47;10527127;28;1973;-80
2023/09/24 10:49:16;;;;;;;;;;;;;;;18.04;100.00;96584.38;10507400;28;2489;-81
2023/09/24 10:54:27;;;;;;;;;;;;;;;17.21;100.00;96596.94;10526780;28;1947;-81
2023/09/24 10:59:39;;;;;;;;;;;;;;;16.51;100.00;96596.03;10524990;28;2049;-81
2023/09/24 11:04:53;;;;;;;;;;;;;;;15.61;100.00;96600.25;10518996;28;1923;-80
2023/09/24 11:10:01;;;;;;;;;;;;;;;15.33;100.00;96594.53;10517808;28;1942;-80
2023/09/24 11:15:09;;;;;;;;;;;;;;;15.57;100.00;96593.78;10525293;28;1880;-80
2023/09/24 11:20:28;;;;;;;;;;;;;;;15.67;100.00;96594.53;10516571;28;2029;-81
2023/09/24 11:30:58;;;;;;;;;;;;;;;15.97;100.00;96587.19;10499028;28;2060;-79
2023/09/24 11:36:07;;;;;;;;;;;;;;;15.95;100.00;96592.06;10503986;28;2715;-79
2023/09/24 11:41:12;;;;;;;;;;;;;;;16.07;100.00;96587.06;10503300;28;4578;-80
2023/09/24 11:46:21;;;;;;;;;;;;;;;16.30;99.11;96579.22;10521436;28;1994;-80
2023/09/24 11:51:37;;;;;;;;;;;;;;;16.24;100.00;96581.19;10518893;28;1970;-80
2023/09/24 11:57:14;;;;;;;;;;;;;;;15.74;100.00;96583.34;10521087;28;1975;-81
2023/09/24 12:02:18;;;;;;;;;;;;;;;15.79;100.00;96587.91;10503513;28;1906;-80
2023/09/24 12:07:41;;;;;;;;;;;;;;;16.17;100.00;96570.69;10520448;28;1979;-79
2023/09/24 12:12:49;;;;;;;;;;;;;;;16.74;100.00;96571.59;10517871;28;2186;-80
2023/09/24 12:17:56;;;;;;;;;;;;;;;16.73;100.00;96561.84;10531965;28;2914;-80
2023/09/24 12:23:06;;;;;;;;;;;;;;;17.19;100.00;96563.84;10527631;28;2032;-79
2023/09/24 12:28:32;;;;;;;;;;;;;;;17.02;100.00;96569.81;10527871;28;1939;-79
2023/09/24 12:33:39;;;;;;;;;;;;;;;15.99;100.00;96566.00;10509859;28;1913;-80
2023/09/24 12:38:47;;;;;;;;;;;;;;;16.16;100.00;96563.63;10487609;28;1967;-80
2023/09/24 12:43:53;;;;;;;;;;;;;;;16.04;100.00;96559.72;10509505;28;4569;-80
2023/09/24 12:48:56;;;;;;;;;;;;;;;15.91;100.00;96561.22;10528039;28;2095;-79
2023/09/24 12:54:05;;;;;;;;;;;;;;;16.20;100.00;96544.88;10538230;28;1903;-80
2023/09/24 12:59:18;;;;;;;;;;;;;;;16.25;100.00;96544.00;10563399;28;2059;-80
2023/09/24 13:04:22;;;;;;;;;;;;;;;16.48;100.00;96540.44;10550851;28;1947;-80
2023/09/24 13:09:57;;;;;;;;;;;;;;;16.71;99.57;96542.28;10518254;28;1834;-80
2023/09/24 13:20:30;;;;;;;;;;;;;;;16.40;92.50;96541.06;10530469;28;2938;-81
2023/09/24 13:26:16;;;;;;;;;;;;;;;16.27;88.28;96539.09;10524833;28;1902;-80
2023/09/24 13:31:25;;;;;;;;;;;;;;;16.44;87.81;96531.28;10525408;28;1967;-81
2023/09/24 13:41:45;;;;;;;;;;;;;;;16.66;93.83;96528.75;10531114;28;4498;-80
2023/09/24 13:46:59;;;;;;;;;;;;;;;16.64;90.67;96535.59;10530387;28;2101;-79
2023/09/24 13:52:04;;;;;;;;;;;;;;;16.50;90.08;96527.38;10511196;28;1837;-80
2023/09/24 13:57:20;;;;;;;;;;;;;;;16.79;91.69;96521.00;10526185;28;1930;-80
2023/09/24 14:02:26;;;;;;;;;;;;;;;16.91;81.89;96518.66;10525898;28;1900;-81
2023/09/24 14:07:35;;;;;;;;;;;;;;;16.56;84.08;96523.50;10522509;28;2049;-82
2023/09/24 14:12:40;;;;;;;;;;;;;;;16.57;89.75;96508.03;10511212;28;1818;-82
2023/09/24 14:17:48;;;;;;;;;;;;;;;16.30;100.00;96523.03;10532496;28;1952;-81
2023/09/24 14:28:34;;;;;;;;;;;;;;;16.06;100.00;96514.13;10525797;28;1839;-82
2023/09/24 14:33:41;;;;;;;;;;;;;;;15.79;100.00;96517.44;10508592;28;1964;-79
2023/09/24 14:38:49;;;;;;;;;;;;;;;15.58;100.00;96508.69;10525134;28;1821;-78
2023/09/24 14:43:56;;;;;;;;;;;;;;;15.52;100.00;96507.91;10527600;28;4605;-81
2023/09/24 14:48:59;;;;;;;;;;;;;;;15.49;100.00;96507.69;10513654;28;1517;-77
2023/09/24 14:54:08;;;;;;;;;;;;;;;15.55;100.00;96507.34;10489016;28;1706;-79
2023/09/24 14:59:12;;;;;;;;;;;;;;;15.55;100.00;96504.66;10521691;28;1585;-77
2023/09/24 15:04:20;;;;;;;;;;;;;;;15.52;100.00;96510.63;10519344;28;2344;-80
2023/09/24 15:09:33;;;;;;;;;;;;;;;15.47;100.00;96497.16;10527441;28;1572;-79
2023/09/24 15:14:53;;;;;;;;;;;;;;;15.51;100.00;96491.94;10523297;28;1543;-79
2023/09/24 15:20:06;;;;;;;;;;;;;;;15.50;100.00;96485.72;10525036;28;2546;-78
2023/09/24 15:25:14;;;;;;;;;;;;;;;15.47;100.00;96494.44;10519449;28;1985;-79
2023/09/24 15:30:27;;;;;;;;;;;;;;;15.37;100.00;96497.25;10527642;28;1485;-81
2023/09/24 15:35:34;;;;;;;;;;;;;;;15.31;100.00;96487.56;10526384;28;1870;-78
2023/09/24 15:46:17;;;;;;;;;;;;;;;15.38;100.00;96485.31;10522852;28;1918;-79
2023/09/24 15:51:23;;;;;;;;;;;;;;;15.26;100.00;96490.31;10511551;28;1977;-79
2023/09/24 15:56:32;;;;;;;;;;;;;;;15.18;100.00;96483.63;10536232;28;1468;-79
2023/09/24 16:01:47;;;;;;;;;;;;;;;15.21;100.00;96488.47;10534840;28;1441;-80
2023/09/24 16:06:50;;;;;;;;;;;;;;;15.07;100.00;96493.72;10529865;28;2681;-77
2023/09/24 16:11:54;;;;;;;;;;;;;;;14.92;100.00;96491.16;10528799;28;2127;-77
2023/09/24 16:17:00;;;;;;;;;;;;;;;14.81;100.00;96497.75;10525643;28;1504;-76
2023/09/24 16:22:03;;;;;;;;;;;;;;;14.75;100.00;96496.16;10511107;28;1472;-76
2023/09/24 16:27:09;;;;;;;;;;;;;;;14.70;100.00;96493.50;10512432;28;1989;-77
2023/09/24 16:32:17;;;;;;;;;;;;;;;14.56;100.00;96499.53;10512764;28;1581;-78
2023/09/24 16:37:32;;;;;;;;;;;;;;;14.42;100.00;96498.53;10529877;28;1865;-76
2023/09/24 16:42:49;;;;;;;;;;;;;;;14.30;100.00;96500.75;10532451;28;4552;-76
2023/09/24 16:47:54;;;;;;;;;;;;;;;14.21;100.00;96497.84;10532471;28;1987;-78
2023/09/24 16:52:59;;;;;;;;;;;;;;;14.14;100.00;96501.94;10512356;28;2516;-76
2023/09/24 16:58:05;;;;;;;;;;;;;;;13.99;100.00;96509.00;10519352;28;1532;-76
2023/09/24 17:03:12;;;;;;;;;;;;;;;13.99;100.00;96500.91;10504452;28;1564;-78
2023/09/24 17:19:26;;;;;;;;;;;;;;;13.54;100.00;96509.97;10514520;28;1747;-83
2023/09/24 17:25:02;;;;;;;;;;;;;;;13.34;100.00;96513.53;10528819;28;1916;-81
2023/09/24 17:30:38;;;;;;;;;;;;;;;13.32;100.00;96513.00;10537214;28;1714;-81
2023/09/24 17:36:17;;;;;;;;;;;;;;;13.31;100.00;96527.59;10528956;28;1879;-83
2023/09/24 17:41:40;;;;;;;;;;;;;;;13.01;100.00;96533.00;10534528;28;4623;-80
2023/09/24 17:46:51;;;;;;;;;;;;;;;12.85;100.00;96538.41;10533733;28;1972;-81
2023/09/24 17:52:06;;;;;;;;;;;;;;;12.83;100.00;96532.44;10535764;28;1405;-80
2023/09/24 17:57:17;;;;;;;;;;;;;;;12.64;100.00;96536.75;10532643;28;1527;-79
2023/09/24 18:02:26;;;;;;;;;;;;;;;12.38;100.00;96536.69;10539460;28;1426;-81
2023/09/24 18:07:40;;;;;;;;;;;;;;;12.14;100.00;96541.75;10484048;28;1906;-80
2023/09/24 18:13:07;;;;;;;;;;;;;;;12.13;100.00;96542.81;10512808;28;1976;-79
2023/09/24 18:23:51;;;;;;;;;;;;;;;11.98;100.00;96550.03;10528553;28;1921;-81
2023/09/24 18:29:17;;;;;;;;;;;;;;;11.78;100.00;96548.84;10514978;28;1526;-81
2023/09/24 18:34:36;;;;;;;;;;;;;;;11.68;100.00;96547.97;10534613;28;1375;-80
2023/09/24 18:39:54;;;;;;;;;;;;;;;11.64;100.00;96547.69;10507284;28;2885;-80
2023/09/24 18:45:05;;;;;;;;;;;;;;;11.81;100.00;96548.34;10509557;28;1917;-80
2023/09/24 18:50:32;;;;;;;;;;;;;;;11.64;100.00;96559.28;10512906;28;1603;-79
2023/09/24 18:55:57;;;;;;;;;;;;;;;11.46;100.00;96561.59;10536808;28;1911;-80
2023/09/24 19:01:28;;;;;;;;;;;;;;;11.33;100.00;96560.16;10528884;28;1461;-82
2023/09/24 19:06:37;;;;;;;;;;;;;;;11.24;100.00;96559.81;10532517;28;1902;-80
2023/09/24 19:12:01;;;;;;;;;;;;;;;11.18;100.00;96560.84;10508130;28;1578;-81
2023/09/24 19:17:17;;;;;;;;;;;;;;;11.19;100.00;96557.09;10532234;28;1377;-79
2023/09/24 19:22:31;;;;;;;;;;;;;;;11.15;100.00;96556.00;10512414;28;1383;-80
2023/09/24 19:39:32;;;;;;;;;;;;;;;10.93;100.00;96553.38;10525189;28;2860;-80
2023/09/24 19:45:08;;;;;;;;;;;;;;;11.07;100.00;96543.84;10531308;28;2037;-83
2023/09/24 19:50:15;;;;;;;;;;;;;;;11.02;100.00;96540.28;10531157;28;1869;-78
2023/09/24 19:55:29;;;;;;;;;;;;;;;10.86;100.00;96539.34;10494453;28;1912;-78
2023/09/24 20:00:55;;;;;;;;;;;;;;;10.93;100.00;96536.44;10521648;28;1817;-76
2023/09/24 20:06:03;;;;;;;;;;;;;;;10.90;100.00;96536.97;10520794;28;1914;-77
2023/09/24 20:11:17;;;;;;;;;;;;;;;10.88;100.00;96542.63;10506481;28;1938;-77
2023/09/24 20:16:21;;;;;;;;;;;;;;;10.74;100.00;96544.88;10522841;28;1990;-78
2023/09/24 20:21:28;;;;;;;;;;;;;;;10.59;100.00;96544.75;10507366;28;1831;-77
2023/09/24 20:26:50;;;;;;;;;;;;;;;10.63;100.00;96545.88;10504235;28;2827;-76
2023/09/24 20:31:58;;;;;;;;;;;;;;;10.62;100.00;96535.38;10523516;28;2143;-77
2023/09/24 20:37:08;;;;;;;;;;;;;;;10.50;100.00;96528.28;10525632;28;1799;-76
2023/09/24 20:42:22;;;;;;;;;;;;;;;10.49;100.00;96531.22;10506106;28;1805;-78
2023/09/24 20:47:49;;;;;;;;;;;;;;;10.38;100.00;96534.88;10530217;28;1993;-76
2023/09/24 20:53:03;;;;;;;;;;;;;;;10.35;100.00;96520.06;10510766;28;1924;-76
2023/09/24 20:58:18;;;;;;;;;;;;;;;10.23;100.00;96522.91;10529017;28;2000;-77
2023/09/24 21:03:22;;;;;;;;;;;;;;;10.24;100.00;96524.53;10511906;28;2052;-78
2023/09/24 21:08:33;;;;;;;;;;;;;;;10.20;100.00;96520.69;10532916;28;1899;-78
2023/09/24 21:13:51;;;;;;;;;;;;;;;10.13;100.00;96527.34;10530420;28;3404;-77
2023/09/24 21:18:57;;;;;;;;;;;;;;;10.19;100.00;96526.31;10507076;28;1814;-77
2023/09/24 21:24:04;;;;;;;;;;;;;;;10.19;100.00;96521.75;10488299;28;1891;-77
2023/09/24 21:29:20;;;;;;;;;;;;;;;10.18;100.00;96508.56;10523043;28;1969;-76
2023/09/24 21:34:31;;;;;;;;;;;;;;;10.15;100.00;96512.56;10508839;28;1884;-77
2023/09/24 21:39:35;;;;;;;;;;;;;;;10.10;100.00;96504.47;10526474;28;1890;-77
2023/09/24 21:44:55;;;;;;;;;;;;;;;10.05;100.00;96509.75;10524263;28;5030;-76
2023/09/24 21:50:02;;;;;;;;;;;;;;;9.99;100.00;96500.06;10505058;28;1857;-77
2023/09/24 21:55:05;;;;;;;;;;;;;;;9.87;100.00;96497.50;10525172;28;2881;-76
2023/09/24 22:00:30;;;;;;;;;;;;;;;9.75;100.00;96494.94;10526772;28;1604;-78
2023/09/24 22:05:41;;;;;;;;;;;;;;;9.74;100.00;96498.69;10519614;28;1917;-77
2023/09/24 22:10:54;;;;;;;;;;;;;;;9.72;100.00;96494.63;10521201;28;1903;-75
2023/09/24 22:16:03;;;;;;;;;;;;;;;9.76;100.00;96487.69;10489790;28;1947;-78
2023/09/24 22:21:20;;;;;;;;;;;;;;;9.70;100.00;96486.00;10524607;28;2011;-77
2023/09/24 22:26:31;;;;;;;;;;;;;;;9.70;100.00;96476.09;10527213;28;1918;-77
2023/09/24 22:31:36;;;;;;;;;;;;;;;9.59;100.00;96474.34;10521387;28;1683;-77
2023/09/24 22:42:05;;;;;;;;;;;;;;;9.40;100.00;96484.56;10522942;28;4492;-76
2023/09/24 22:47:14;;;;;;;;;;;;;;;9.41;100.00;96482.69;10515174;28;1902;-77
2023/09/24 22:52:21;;;;;;;;;;;;;;;9.44;100.00;96483.00;10519601;28;1900;-76
2023/09/24 22:57:25;;;;;;;;;;;;;;;9.34;100.00;96480.19;10523406;28;1888;-76
2023/09/24 23:02:37;;;;;;;;;;;;;;;9.24;100.00;96487.31;10514669;28;1883;-77
2023/09/24 23:07:45;;;;;;;;;;;;;;;9.23;100.00;96480.31;10502767;28;1977;-77
2023/09/24 23:12:52;;;;;;;;;;;;;;;9.15;100.00;96473.50;10524254;28;1933;-77
2023/09/24 23:17:58;;;;;;;;;;;;;;;9.12;100.00;96458.72;10520023;28;1877;-77
2023/09/24 23:23:09;;;;;;;;;;;;;;;9.15;100.00;96452.84;10528954;28;1898;-77
2023/09/24 23:28:14;;;;;;;;;;;;;;;9.17;100.00;96461.47;10519818;28;2636;-76
2023/09/24 23:33:18;;;;;;;;;;;;;;;9.03;100.00;96460.19;10513624;28;1904;-76
2023/09/24 23:38:24;;;;;;;;;;;;;;;9.04;100.00;96459.16;10525782;28;1835;-77
2023/09/24 23:43:30;;;;;;;;;;;;;;;9.02;100.00;96461.25;10499387;28;4631;-76
2023/09/24 23:48:40;;;;;;;;;;;;;;;9.00;100.00;96438.41;10520118;28;1906;-78
2023/09/24 23:53:43;;;;;;;;;;;;;;;8.99;100.00;96448.34;10523222;28;1887;-77
2023/09/24 23:58:55;;;;;;;;;;;;;;;8.99;100.00;96459.06;10503954;28;1902;-78
